This is the latest recevied weather packets stored in our database for station/object KQ4HDO. If no packets are shown the sender has not sent any weather packets the latest 10 day(s).
| Time | Temp. | Humidity | Pressure | Rain* | Wind** | Luminosity | Snow |
|---|---|---|---|---|---|---|---|
| 1777631403 | 6.11° C | 76% | 1017 hPa | 0 mm | - | - | - |
| 1777629003 | 6.67° C | 75% | 1017 hPa | 0 mm | - | - | - |
| 1777627203 | 6.67° C | 74% | 1016.9 hPa | 0 mm | - | - | - |
| 1777626303 | 7.22° C | 74% | 1016.9 hPa | 0 mm | - | - | - |
| 1777625703 | 7.22° C | 73% | 1017 hPa | 0 mm | - | - | - |
| 1777625403 | 7.22° C | 74% | 1016.9 hPa | 0 mm | - | - | - |
| 1777625103 | 7.78° C | 73% | 1016.9 hPa | 0 mm | - | - | - |
| 1777623603 | 7.78° C | 74% | 1016.8 hPa | 0 mm | - | - | - |
| 1777620437 | 8.89° C | 79% | 1016.6 hPa | 0 mm | - | - | - |
| 1777619403 | 8.89° C | 79% | 1016.5 hPa | 0 mm | - | - | - |
| 1777617003 | 10.56° C | 74% | 1016.6 hPa | 0 mm | - | - | - |
| 1777614138 | 11.67° C | 72% | 1016.3 hPa | 0 mm | - | - | - |
| 1777613403 | 11.67° C | 72% | 1016.2 hPa | 0 mm | - | - | - |
| 1777612503 | 11.67° C | 72% | 1016.3 hPa | 0 mm | - | - | - |
| 1777612203 | 11.67° C | 72% | 1016.3 hPa | 0 mm | - | - | - |
| 1777609203 | 12.22° C | 78% | 1015.9 hPa | 0 mm | - | - | - |
| 1777608903 | 12.22° C | 79% | 1015.7 hPa | 0 mm | - | - | - |
| 1777608603 | 12.22° C | 78% | 1015.7 hPa | 0 mm | - | - | - |
| 1777608003 | 12.22° C | 80% | 1015.6 hPa | 0 mm | - | - | - |
| 1777607703 | 12.22° C | 81% | 1015.6 hPa | 0 mm | - | - | - |
| 1777605438 | 12.22° C | 82% | 1015.6 hPa | 0 mm | - | - | - |
| 1777604838 | 12.22° C | 82% | 1015.5 hPa | 0 mm | - | - | - |
| 1777603203 | 12.22° C | 82% | 1015.3 hPa | 0 mm | - | - | - |
| 1777602303 | 12.22° C | 81% | 1015.1 hPa | 0 mm | - | - | - |
| 1777601837 | 12.78° C | 81% | 1015 hPa | 0 mm | - | - | - |
* Rain latest hour (hover to see other rain measurements)
** Current wind speed in m/s (hover to see current wind gust speed)